Time;durP1;ratioP1;P1;durP2;ratioP2;P2;SDS_P1;SDS_P2;PMS_P1;PMS_P2;Temp;Humidity;BMP_temperature;BMP_pressure;BME280_temperature;BME280_humidity;BME280_pressure;Samples;Min_cycle;Max_cycle;Signal;HPM_P1;HPM_P2
2021/07/02 00:00:12;;;;;;;;;31.75;27.50;;;;;22.19;55.46;101407.16;5037850;28;45371;-84
2021/07/02 00:02:39;;;;;;;;;34.25;30.25;;;;;22.16;56.08;101405.41;5036878;28;45427;-84
2021/07/02 00:05:06;;;;;;;;;40.00;32.25;;;;;22.14;56.07;101412.41;5039011;28;45447;-84
2021/07/02 00:07:32;;;;;;;;;35.50;32.00;;;;;22.10;56.08;101405.34;5036577;28;46473;-85
2021/07/02 00:09:58;;;;;;;;;29.25;27.75;;;;;22.07;56.84;101403.56;5036330;28;45289;-83
2021/07/02 00:12:23;;;;;;;;;28.75;24.75;;;;;22.00;56.24;101391.22;5036902;28;45429;-80
2021/07/02 00:14:49;;;;;;;;;31.75;28.75;;;;;22.01;56.61;101407.91;5038233;28;45230;-81
2021/07/02 00:17:14;;;;;;;;;35.25;31.00;;;;;21.97;56.69;101401.75;5036509;28;46399;-84
2021/07/02 00:19:40;;;;;;;;;36.00;32.00;;;;;21.95;56.50;101400.84;5036195;28;45436;-83
2021/07/02 00:22:05;;;;;;;;;29.75;26.50;;;;;21.94;56.67;101396.44;5036275;28;45417;-84
2021/07/02 00:24:31;;;;;;;;;36.75;33.00;;;;;21.94;56.60;101397.34;5038185;28;45567;-84
2021/07/02 00:26:57;;;;;;;;;40.75;35.00;;;;;21.92;56.89;101404.34;5036823;28;46006;-84
2021/07/02 00:29:22;;;;;;;;;31.50;29.75;;;;;21.89;57.12;101406.09;5036515;28;45397;-82
2021/07/02 00:31:48;;;;;;;;;31.00;25.75;;;;;21.84;56.65;101397.25;5036276;28;45459;-83
2021/07/02 00:34:14;;;;;;;;;33.50;31.00;;;;;21.84;57.39;101408.69;5036356;28;45593;-84
2021/07/02 00:36:40;;;;;;;;;30.00;29.00;;;;;21.77;57.44;101406.84;5035960;28;46211;-84
2021/07/02 00:39:07;;;;;;;;;41.75;32.50;;;;;21.78;57.44;101408.63;5036063;28;45415;-84
2021/07/02 00:41:33;;;;;;;;;40.50;35.25;;;;;21.73;57.95;101407.72;5035956;28;45324;-83
2021/07/02 00:43:59;;;;;;;;;36.75;33.00;;;;;21.70;57.63;101412.97;5036441;28;45522;-85
2021/07/02 00:46:25;;;;;;;;;37.00;31.00;;;;;21.68;57.85;101423.50;5018277;28;45438;-82
2021/07/02 00:48:51;;;;;;;;;38.50;33.50;;;;;21.60;58.48;101415.53;5037545;28;45564;-83
2021/07/02 00:51:17;;;;;;;;;43.00;31.75;;;;;21.58;58.34;101416.34;5035752;28;45419;-84
2021/07/02 00:53:44;;;;;;;;;40.75;36.50;;;;;21.56;58.43;101411.03;5018107;28;45601;-84
2021/07/02 00:56:10;;;;;;;;;36.25;34.00;;;;;21.56;58.64;101418.94;5039314;28;45594;-83
2021/07/02 00:58:36;;;;;;;;;34.25;31.00;;;;;21.51;58.42;101404.88;5039066;28;45237;-83
2021/07/02 01:01:03;;;;;;;;;38.50;33.75;;;;;21.50;58.45;101408.38;5021115;28;45199;-83
2021/07/02 01:03:29;;;;;;;;;42.50;32.75;;;;;21.48;58.54;101412.75;5039384;28;45510;-84
2021/07/02 01:05:55;;;;;;;;;33.00;31.25;;;;;21.50;58.74;101416.28;5021143;28;46681;-85
2021/07/02 01:08:22;;;;;;;;;31.50;29.50;;;;;21.46;58.30;101406.56;5040046;28;45324;-82
2021/07/02 01:10:47;;;;;;;;;39.00;34.50;;;;;21.46;58.24;101407.47;5042604;28;45431;-84
2021/07/02 01:13:13;;;;;;;;;45.00;34.25;;;;;21.46;58.89;101406.56;5040444;28;45411;-82
2021/07/02 01:15:39;;;;;;;;;39.25;33.50;;;;;21.43;59.06;101399.53;5040653;28;46108;-83
2021/07/02 01:18:07;;;;;;;;;37.25;31.75;;;;;21.44;58.80;101405.66;5021303;28;45381;-83
2021/07/02 01:20:33;;;;;;;;;37.75;32.00;;;;;21.43;58.78;101406.56;5039092;28;45408;-83
2021/07/02 01:22:59;;;;;;;;;35.50;32.75;;;;;21.35;59.11;101390.69;5039420;28;45607;-83
2021/07/02 01:25:29;;;;;;;;;33.75;31.25;;;;;21.36;59.21;101404.72;5038807;28;46167;-83
2021/07/02 01:27:55;;;;;;;;;35.50;32.50;;;;;21.33;58.95;101400.31;5037604;28;45213;-83
2021/07/02 01:30:20;;;;;;;;;37.75;33.50;;;;;21.31;59.21;101408.19;5039222;28;45284;-83
2021/07/02 01:32:46;;;;;;;;;42.75;35.25;;;;;21.29;59.39;101407.31;5039320;28;45233;-82
2021/07/02 01:35:12;;;;;;;;;40.50;33.25;;;;;21.28;58.98;101395.00;5039211;28;45664;-83
2021/07/02 01:37:37;;;;;;;;;42.50;33.75;;;;;21.26;59.21;101396.72;5038498;28;45308;-84
2021/07/02 01:40:04;;;;;;;;;41.50;34.00;;;;;21.26;59.05;101398.50;5038840;28;45272;-83
2021/07/02 01:42:30;;;;;;;;;37.75;31.75;;;;;21.20;59.57;101391.41;5039009;28;45343;-83
2021/07/02 01:44:56;;;;;;;;;36.25;34.00;;;;;21.21;59.48;101394.91;5038595;28;46237;-83
2021/07/02 01:47:22;;;;;;;;;40.50;34.50;;;;;21.15;59.25;101396.63;5038832;28;45801;-82
2021/07/02 01:49:48;;;;;;;;;37.00;33.25;;;;;21.12;59.85;101393.06;5020581;28;45512;-82
2021/07/02 01:52:14;;;;;;;;;37.75;33.75;;;;;21.09;59.42;101390.41;5040098;28;45352;-82
2021/07/02 01:54:40;;;;;;;;;40.50;34.00;;;;;21.07;59.50;101395.66;5038843;28;45477;-82
2021/07/02 01:57:13;;;;;;;;;45.75;34.00;;;;;21.05;59.47;101384.25;5038816;28;45233;-83
2021/07/02 01:59:38;;;;;;;;;34.50;30.50;;;;;21.03;59.54;101383.34;5038430;28;45863;-84
2021/07/02 02:02:04;;;;;;;;;38.50;33.25;;;;;21.04;59.71;101385.09;5038884;28;45452;-83
2021/07/02 02:04:30;;;;;;;;;41.25;34.25;;;;;21.00;59.95;101378.03;5038004;28;46523;-84
2021/07/02 02:06:55;;;;;;;;;36.75;31.75;;;;;21.01;59.92;101382.44;5020399;28;45271;-83
2021/07/02 02:09:21;;;;;;;;;34.50;31.50;;;;;20.98;60.29;101379.75;5038893;28;45388;-83
2021/07/02 02:11:47;;;;;;;;;34.25;29.75;;;;;20.93;60.19;101392.00;5038354;28;45238;-83
2021/07/02 02:14:12;;;;;;;;;40.50;33.50;;;;;20.88;60.71;101389.31;5038110;28;45886;-84
2021/07/02 02:16:38;;;;;;;;;35.75;31.75;;;;;20.83;60.41;101384.00;5037937;28;45376;-84
2021/07/02 02:19:04;;;;;;;;;36.75;33.25;;;;;20.82;60.05;101391.84;5038508;28;45440;-83
2021/07/02 02:21:31;;;;;;;;;43.25;33.00;;;;;20.78;60.31;101376.91;5038136;28;45367;-83
2021/07/02 02:23:56;;;;;;;;;34.25;30.75;;;;;20.80;60.10;101389.22;5038042;28;45437;-85
2021/07/02 02:26:22;;;;;;;;;35.25;32.50;;;;;20.76;60.48;101376.88;5020203;28;45473;-83
2021/07/02 02:28:47;;;;;;;;;34.75;31.50;;;;;20.79;61.02;101382.19;5037933;28;45320;-84
2021/07/02 02:31:13;;;;;;;;;34.50;29.75;;;;;20.77;60.45;101381.28;5040104;28;46192;-83
2021/07/02 02:33:39;;;;;;;;;41.25;33.75;;;;;20.78;60.77;101375.16;5038856;28;46429;-83
2021/07/02 02:36:05;;;;;;;;;37.75;32.75;;;;;20.79;60.66;101381.28;5037839;28;45470;-83
2021/07/02 02:38:31;;;;;;;;;37.25;32.50;;;;;20.79;61.05;101378.66;5037873;28;45217;-83
2021/07/02 02:40:57;;;;;;;;;31.50;28.00;;;;;20.76;60.77;101374.25;5038165;28;45286;-83
2021/07/02 02:43:23;;;;;;;;;35.00;33.25;;;;;20.77;61.22;101381.28;5020039;28;46393;-83
2021/07/02 02:45:48;;;;;;;;;32.25;29.50;;;;;20.76;60.86;101376.88;5037784;28;45406;-83
2021/07/02 02:48:14;;;;;;;;;39.50;33.50;;;;;20.75;60.87;101375.09;5037794;28;45266;-83
2021/07/02 02:50:40;;;;;;;;;34.25;30.00;;;;;20.75;61.47;101371.59;5037705;28;45432;-82
2021/07/02 02:53:06;;;;;;;;;37.75;33.50;;;;;20.76;61.16;101373.38;5037994;28;46577;-82
2021/07/02 02:55:31;;;;;;;;;35.75;31.25;;;;;20.74;60.73;101370.72;5038890;28;45355;-84
2021/07/02 02:57:57;;;;;;;;;36.50;31.25;;;;;20.72;60.65;101356.66;5041166;28;45470;-83
2021/07/02 03:00:22;;;;;;;;;35.75;32.00;;;;;20.71;60.88;101366.28;5055204;28;45434;-83
2021/07/02 03:02:48;;;;;;;;;32.25;31.00;;;;;20.74;60.78;101370.72;5037615;28;45909;-83
2021/07/02 03:05:14;;;;;;;;;35.50;31.75;;;;;20.66;61.45;101362.72;5037484;28;45277;-83
2021/07/02 03:07:41;;;;;;;;;32.50;30.00;;;;;20.66;61.19;101361.81;5037178;28;45366;-83
2021/07/02 03:10:09;;;;;;;;;37.75;31.50;;;;;20.65;61.16;101368.84;5053441;28;45502;-84
2021/07/02 03:12:35;;;;;;;;;39.00;32.50;;;;;20.61;61.21;101363.53;5020063;28;46488;-84
2021/07/02 03:15:00;;;;;;;;;36.25;32.25;;;;;20.60;61.22;101359.13;5038624;28;45454;-83
2021/07/02 03:17:26;;;;;;;;;36.25;31.75;;;;;20.59;61.41;101358.22;5018764;28;45328;-83
2021/07/02 03:19:52;;;;;;;;;35.00;32.25;;;;;20.57;61.50;101354.72;5037176;28;45613;-84
2021/07/02 03:22:17;;;;;;;;;33.50;31.50;;;;;20.54;62.07;101357.31;5036967;28;46314;-84
2021/07/02 03:24:43;;;;;;;;;31.25;29.25;;;;;20.48;61.69;101357.22;5036791;28;45402;-84
2021/07/02 03:27:10;;;;;;;;;42.75;34.75;;;;;20.43;61.82;101357.16;5037124;28;45487;-84
2021/07/02 03:29:36;;;;;;;;;33.25;31.75;;;;;20.38;62.10;101365.00;5037099;28;45276;-83
2021/07/02 03:32:03;;;;;;;;;37.00;32.00;;;;;20.34;61.65;101365.81;5036840;28;46397;-83
2021/07/02 03:34:29;;;;;;;;;36.25;33.50;;;;;20.32;61.91;101362.28;5036799;28;45400;-84
2021/07/02 03:36:54;;;;;;;;;37.00;31.00;;;;;20.29;62.03;101367.50;5019036;28;45274;-83
2021/07/02 03:39:20;;;;;;;;;29.00;27.75;;;;;20.25;62.60;101363.03;5037550;28;45671;-83
2021/07/02 03:41:45;;;;;;;;;35.00;33.25;;;;;20.19;62.71;101353.31;5036845;28;46256;-83
2021/07/02 03:44:11;;;;;;;;;30.50;29.75;;;;;20.15;62.75;101353.28;5036982;28;45495;-83
2021/07/02 03:46:37;;;;;;;;;37.00;31.25;;;;;20.13;62.85;101370.78;5037152;28;45282;-83
2021/07/02 03:49:03;;;;;;;;;36.50;32.75;;;;;20.11;62.68;101368.13;5039420;28;45301;-84
2021/07/02 03:51:28;;;;;;;;;29.50;27.75;;;;;20.06;63.13;101352.28;5037891;28;46599;-82
2021/07/02 03:53:54;;;;;;;;;30.50;29.50;;;;;20.07;62.69;101364.56;5036996;28;45394;-83
2021/07/02 03:56:19;;;;;;;;;38.25;33.75;;;;;20.05;63.21;101358.41;5038301;28;45404;-83
2021/07/02 03:58:45;;;;;;;;;34.00;31.50;;;;;20.08;62.92;101368.09;5037765;28;45245;-81
2021/07/02 04:01:11;;;;;;;;;32.25;30.00;;;;;20.03;62.94;101367.13;5038455;28;45422;-81
2021/07/02 04:03:37;;;;;;;;;35.50;31.50;;;;;20.03;63.07;101368.00;5036620;28;45245;-82
2021/07/02 04:06:02;;;;;;;;;32.25;29.50;;;;;20.04;62.92;101384.69;5018631;28;45721;-82
2021/07/02 04:08:28;;;;;;;;;30.75;27.75;;;;;20.02;62.97;101382.03;5036754;28;45631;-82
2021/07/02 04:10:54;;;;;;;;;36.25;31.75;;;;;20.00;62.94;101383.75;5036599;28;46501;-84
2021/07/02 04:13:21;;;;;;;;;37.75;30.75;;;;;20.01;63.59;101385.53;5037006;28;45242;-85
2021/07/02 04:15:48;;;;;;;;;34.25;31.75;;;;;19.97;63.98;101374.94;5038111;28;45273;-85
2021/07/02 04:18:13;;;;;;;;;29.50;29.50;;;;;19.99;63.10;101376.72;5036961;28;45880;-85
2021/07/02 04:20:39;;;;;;;;;36.75;33.00;;;;;20.00;63.90;101377.59;5036420;28;46126;-86
2021/07/02 04:23:05;;;;;;;;;36.25;31.50;;;;;20.00;63.89;101382.84;5036420;28;45776;-85
2021/07/02 04:25:31;;;;;;;;;35.00;30.00;;;;;20.01;63.86;101389.88;5018270;28;45261;-83
2021/07/02 04:27:56;;;;;;;;;34.25;30.00;;;;;20.00;63.44;101396.00;5037668;28;45331;-83
2021/07/02 04:30:22;;;;;;;;;38.75;31.75;;;;;19.94;63.17;101389.78;5019004;28;45251;-83
2021/07/02 04:32:48;;;;;;;;;36.25;30.00;;;;;19.98;63.43;101395.97;5037033;28;45351;-84
2021/07/02 04:35:14;;;;;;;;;39.50;33.00;;;;;19.98;63.85;101400.38;5036555;28;45360;-84
2021/07/02 04:37:41;;;;;;;;;32.75;30.25;;;;;19.99;63.86;101405.63;5036342;28;45534;-84
2021/07/02 04:40:08;;;;;;;;;35.25;31.00;;;;;19.98;63.28;101395.09;5036172;28;45433;-83
2021/07/02 04:42:34;;;;;;;;;35.25;29.75;;;;;19.98;63.54;101405.63;5034622;28;45832;-84
2021/07/02 04:45:00;;;;;;;;;34.00;31.25;;;;;19.93;63.96;101398.53;5018519;28;45468;-84
2021/07/02 04:47:25;;;;;;;;;33.50;30.25;;;;;19.95;63.93;101406.44;5034847;28;45411;-83
2021/07/02 04:49:51;;;;;;;;;33.25;30.50;;;;;19.93;64.18;101392.38;5036417;28;45520;-82
2021/07/02 04:52:17;;;;;;;;;33.25;31.75;;;;;19.92;63.47;101393.28;5035767;28;46159;-83
2021/07/02 04:54:42;;;;;;;;;42.50;32.00;;;;;19.88;63.60;101386.19;5036305;28;45352;-83
2021/07/02 04:57:08;;;;;;;;;36.25;32.75;;;;;19.95;63.66;101398.56;5036610;28;45257;-84
2021/07/02 04:59:39;;;;;;;;;32.75;31.00;;;;;20.02;63.11;101396.91;5035689;28;45979;-83
2021/07/02 05:02:06;;;;;;;;;32.25;29.75;;;;;20.05;63.76;101399.59;5036592;28;45930;-83
2021/07/02 05:04:32;;;;;;;;;34.25;29.00;;;;;20.09;63.24;101393.50;5036054;28;45368;-85
2021/07/02 05:06:58;;;;;;;;;37.50;32.00;;;;;20.17;63.22;101393.63;5037140;28;45261;-84
2021/07/02 05:09:24;;;;;;;;;39.00;34.25;;;;;20.21;63.16;101396.31;5036170;28;45231;-83
2021/07/02 05:11:50;;;;;;;;;38.25;31.75;;;;;20.28;62.98;101401.69;5018114;28;45439;-84
2021/07/02 05:14:16;;;;;;;;;41.25;33.50;;;;;20.30;62.83;101390.31;5051270;28;45314;-82
2021/07/02 05:16:41;;;;;;;;;41.25;34.00;;;;;20.33;62.80;101390.34;5018238;28;45549;-83
2021/07/02 05:19:08;;;;;;;;;40.50;33.25;;;;;20.39;62.75;101394.81;5036146;28;45411;-82
2021/07/02 05:21:34;;;;;;;;;34.25;33.00;;;;;20.40;62.58;101393.97;5051791;28;45838;-86
2021/07/02 05:24:00;;;;;;;;;40.75;33.25;;;;;20.42;62.57;101398.38;5036210;28;45462;-85
2021/07/02 05:26:25;;;;;;;;;39.00;33.25;;;;;20.37;62.70;101384.25;5017925;28;45679;-81
2021/07/02 05:28:51;;;;;;;;;37.75;33.50;;;;;20.43;62.13;101396.59;5034985;28;46048;-85
2021/07/02 05:31:17;;;;;;;;;46.50;35.75;;;;;20.44;62.56;101394.88;5034867;28;45359;-83
2021/07/02 05:33:43;;;;;;;;;36.75;33.75;;;;;20.44;62.71;101394.88;5036574;28;45349;-85
2021/07/02 05:36:09;;;;;;;;;44.25;36.25;;;;;20.42;62.96;101402.72;5038004;28;45348;-84
2021/07/02 05:38:35;;;;;;;;;41.25;35.25;;;;;20.40;62.88;101397.47;5039134;28;45443;-84
2021/07/02 05:41:00;;;;;;;;;46.00;37.00;;;;;20.40;62.71;101397.47;5038810;28;45551;-83
2021/07/02 05:43:26;;;;;;;;;40.75;34.25;;;;;20.39;63.28;101395.69;5041158;28;45679;-85
2021/07/02 05:45:52;;;;;;;;;38.00;32.75;;;;;20.38;62.73;101399.19;5042521;28;45597;-84
2021/07/02 05:48:19;;;;;;;;;37.50;33.75;;;;;20.38;62.73;101388.66;5038916;28;46501;-85
2021/07/02 05:50:45;;;;;;;;;38.25;33.75;;;;;20.44;62.57;101393.13;5039446;28;45919;-83
2021/07/02 05:53:12;;;;;;;;;35.25;33.25;;;;;20.51;63.05;101394.09;5038789;28;45249;-81
2021/07/02 05:55:38;;;;;;;;;37.50;32.00;;;;;20.52;62.50;101390.59;5040634;28;45312;-84
2021/07/02 05:58:03;;;;;;;;;40.75;35.75;;;;;20.54;62.45;101389.75;5028294;28;46526;-84
2021/07/02 06:00:30;;;;;;;;;40.00;34.25;;;;;20.59;62.39;101395.06;5050559;28;45272;-85
2021/07/02 06:02:57;;;;;;;;;35.25;32.75;;;;;20.60;62.81;101385.44;5045729;28;45451;-87
2021/07/02 06:05:23;;;;;;;;;45.25;35.25;;;;;20.60;63.13;101393.31;5056846;28;45435;-90
2021/07/02 06:07:52;;;;;;;;;38.50;32.75;;;;;20.55;62.52;101383.63;5033342;28;45412;-88
2021/07/02 06:10:19;;;;;;;;;35.75;33.50;;;;;20.55;62.58;101388.00;5033841;28;45448;-91
2021/07/02 06:12:46;;;;;;;;;34.50;31.50;;;;;20.58;62.60;101395.91;5043078;28;45418;-84
2021/07/02 06:15:14;;;;;;;;;43.25;34.50;;;;;20.57;63.03;101396.81;5039643;28;45490;-84
2021/07/02 06:17:40;;;;;;;;;40.00;33.25;;;;;20.58;63.24;101398.56;5039605;28;46376;-88
2021/07/02 06:20:07;;;;;;;;;37.50;32.75;;;;;20.59;62.47;101400.31;5039482;28;45441;-80
2021/07/02 06:22:33;;;;;;;;;75.25;61.25;;;;;20.62;63.23;101400.38;5040651;28;45372;-80
2021/07/02 06:24:59;;;;;;;;;41.00;34.25;;;;;20.62;62.54;101397.75;5021781;28;45399;-79
2021/07/02 06:27:24;;;;;;;;;39.75;33.75;;;;;20.61;63.04;101389.84;5038873;28;46283;-87
2021/07/02 06:29:50;;;;;;;;;41.25;36.50;;;;;20.63;62.71;101394.25;5051100;28;45553;-82
2021/07/02 06:32:15;;;;;;;;;40.50;34.25;;;;;20.62;62.82;101388.97;5054733;28;45853;-81
2021/07/02 06:34:41;;;;;;;;;41.50;36.75;;;;;20.66;63.34;101391.66;5023765;28;45424;-81
2021/07/02 06:37:07;;;;;;;;;40.00;35.25;;;;;20.69;63.33;101393.44;5030442;28;46275;-80
2021/07/02 06:39:32;;;;;;;;;42.00;35.50;;;;;20.69;62.80;101394.31;5030110;28;45423;-81
2021/07/02 06:41:58;;;;;;;;;43.50;35.25;;;;;20.70;63.16;101396.06;5019213;28;45417;-82
2021/07/02 06:44:24;;;;;;;;;36.50;31.50;;;;;20.75;62.87;101397.94;5020432;28;45621;-82
2021/07/02 06:46:49;;;;;;;;;46.25;36.25;;;;;20.79;62.62;101402.34;5027726;28;46780;-89
2021/07/02 06:49:15;;;;;;;;;44.00;34.50;;;;;20.82;62.98;101398.03;5045234;28;44692;-81
2021/07/02 06:51:41;;;;;;;;;43.00;34.75;;;;;20.84;62.81;101398.91;5054838;28;44679;-86
2021/07/02 06:54:06;;;;;;;;;45.00;35.75;;;;;20.87;62.62;101403.34;5054954;28;45292;-88
2021/07/02 06:56:33;;;;;;;;;34.25;32.50;;;;;20.88;62.66;101399.84;5053815;28;46307;-84
2021/07/02 06:58:58;;;;;;;;;38.75;33.75;;;;;20.88;62.59;101398.09;5048566;28;45310;-82
2021/07/02 07:01:25;;;;;;;;;42.25;33.75;;;;;20.92;61.89;101398.13;5043503;28;45445;-83
2021/07/02 07:03:51;;;;;;;;;37.00;31.25;;;;;20.87;62.19;101392.81;5026406;28;45618;-87
2021/07/02 07:06:17;;;;;;;;;40.50;33.75;;;;;20.94;62.03;101404.28;5038520;28;45396;-89
2021/07/02 07:08:43;;;;;;;;;57.75;45.50;;;;;20.96;62.08;101406.06;5037420;28;45398;-88
2021/07/02 07:11:08;;;;;;;;;39.00;33.75;;;;;21.01;61.92;101398.22;5039827;28;45702;-90
2021/07/02 07:13:36;;;;;;;;;39.00;33.75;;;;;21.02;61.71;101402.63;5038417;28;45436;-78
2021/07/02 07:16:02;;;;;;;;;40.50;34.25;;;;;21.10;61.59;101407.97;5040612;28;45520;-85
2021/07/02 07:18:28;;;;;;;;;35.75;31.75;;;;;21.13;61.49;101405.34;5035605;28;45445;-84
2021/07/02 07:20:54;;;;;;;;;34.50;31.75;;;;;21.16;61.28;101410.66;5037269;28;45495;-84
2021/07/02 07:23:19;;;;;;;;;37.00;31.75;;;;;21.20;61.39;101409.84;5035826;28;45532;-86
2021/07/02 07:25:45;;;;;;;;;35.75;32.25;;;;;21.23;61.24;101401.09;5040234;28;45887;-90
2021/07/02 07:28:11;;;;;;;;;38.00;33.75;;;;;21.24;61.18;101406.34;5037788;28;45924;-79
2021/07/02 07:30:36;;;;;;;;;41.25;34.75;;;;;21.23;61.01;101401.09;5033205;28;45556;-89
2021/07/02 07:33:02;;;;;;;;;34.75;32.75;;;;;21.26;60.67;101415.16;5035467;28;45619;-79
2021/07/02 07:35:32;;;;;;;;;32.25;30.00;;;;;21.30;60.66;101414.34;5035827;28;45454;-84
2021/07/02 07:37:57;;;;;;;;;33.25;30.50;;;;;21.31;60.59;101402.94;5016121;28;45365;-80
2021/07/02 07:40:26;;;;;;;;;35.75;30.75;;;;;21.38;60.15;101416.16;5035795;28;45273;-79
2021/07/02 07:42:52;;;;;;;;;36.75;32.50;;;;;21.40;59.78;101414.41;5037335;28;45403;-82
2021/07/02 07:45:18;;;;;;;;;39.75;35.75;;;;;21.42;59.79;101415.31;5016434;28;47599;-80
2021/07/02 07:47:44;;;;;;;;;41.00;35.00;;;;;21.39;59.62;101407.38;5035746;28;45406;-81
2021/07/02 07:50:13;;;;;;;;;46.50;34.50;;;;;21.47;59.75;101417.13;5035930;28;45423;-82
2021/07/02 07:55:07;;;;;;;;;37.75;32.50;;;;;21.47;59.87;101416.22;5035770;28;45936;-80
2021/07/02 07:57:33;;;;;;;;;34.50;31.00;;;;;21.47;59.95;101408.34;5032437;28;45982;-79
2021/07/02 07:59:59;;;;;;;;;39.50;33.25;;;;;21.54;60.17;101414.53;5018819;28;45479;-88
2021/07/02 08:02:24;;;;;;;;;35.75;33.25;;;;;21.54;60.28;101420.72;5018000;28;45618;-81
2021/07/02 08:04:50;;;;;;;;;33.00;31.00;;;;;21.56;59.92;101418.09;5036533;28;45413;-83
2021/07/02 08:07:15;;;;;;;;;40.00;32.00;;;;;21.55;60.40;101422.44;5035118;28;45502;-84
2021/07/02 08:09:41;;;;;;;;;32.00;29.75;;;;;21.60;59.53;101426.06;5035419;28;45506;-82
2021/07/02 08:12:07;;;;;;;;;42.00;32.25;;;;;21.61;58.99;101422.56;5034541;28;45266;-84
2021/07/02 08:14:33;;;;;;;;;39.00;31.50;;;;;21.65;59.29;101434.00;5022046;28;46637;-82
2021/07/02 08:16:58;;;;;;;;;35.75;31.50;;;;;21.60;59.38;101418.16;5034547;28;45277;-82
2021/07/02 08:19:24;;;;;;;;;42.25;31.75;;;;;21.67;58.88;101424.38;5035865;28;45820;-79
2021/07/02 08:21:50;;;;;;;;;39.50;33.50;;;;;21.72;58.97;101427.03;5038702;28;45625;-83
2021/07/02 08:24:16;;;;;;;;;40.00;30.25;;;;;21.71;58.63;101420.88;5039396;28;45753;-81
2021/07/02 08:26:42;;;;;;;;;31.75;30.25;;;;;21.79;58.53;101431.47;5019380;28;45474;-77
2021/07/02 08:29:24;;;;;;;;;25.75;25.75;;;;;21.82;57.73;101431.50;5034225;28;45423;-80
2021/07/02 08:31:53;;;;;;;;;79.25;67.50;;;;;21.90;57.05;101431.59;5034496;28;45626;-76
2021/07/02 08:34:19;;;;;;;;;49.75;40.00;;;;;21.96;57.16;101431.63;5037268;28;45522;-75
2021/07/02 08:36:45;;;;;;;;;70.00;56.75;;;;;22.02;57.28;101428.13;5051130;28;45452;-77
2021/07/02 08:39:10;;;;;;;;;42.75;35.25;;;;;22.05;57.53;101425.53;5046390;28;45829;-85
2021/07/02 08:41:40;;;;;;;;;38.50;33.75;;;;;22.11;57.41;101421.19;5035566;28;45377;-79
2021/07/02 08:44:06;;;;;;;;;32.50;28.50;;;;;22.20;57.49;101424.75;5032533;28;46410;-79
2021/07/02 08:46:34;;;;;;;;;32.25;29.75;;;;;22.26;57.31;101419.50;5015112;28;45431;-80
2021/07/02 08:49:01;;;;;;;;;35.75;28.75;;;;;22.41;57.22;101416.09;5034781;28;45376;-79
2021/07/02 08:51:27;;;;;;;;;35.00;29.50;;;;;22.53;56.64;101413.53;5035521;28;45706;-81
2021/07/02 08:53:54;;;;;;;;;27.75;27.50;;;;;22.64;55.82;101416.22;5016853;28;46267;-85
2021/07/02 08:56:21;;;;;;;;;32.75;29.75;;;;;22.75;55.87;101420.66;5035213;28;45419;-78
2021/07/02 08:58:47;;;;;;;;;48.75;39.75;;;;;22.81;55.22;101421.59;5034409;28;45538;-77
2021/07/02 09:01:36;;;;;;;;;37.25;31.75;;;;;22.84;55.12;101413.66;5034257;28;45575;-80
2021/07/02 09:04:22;;;;;;;;;43.25;36.25;;;;;22.81;55.14;101411.03;5015641;28;45715;-81
2021/07/02 09:07:12;;;;;;;;;33.50;30.25;;;;;22.77;55.45;101417.16;5016232;28;45833;-80
2021/07/02 09:09:53;;;;;;;;;35.75;33.25;;;;;22.71;55.69;101403.94;5033870;28;45456;-77
2021/07/02 09:12:21;;;;;;;;;32.50;26.75;;;;;22.73;55.45;101410.13;5031458;28;45502;-77
2021/07/02 09:15:05;;;;;;;;;28.75;24.50;;;;;22.72;54.21;101405.72;5032674;28;45499;-77
2021/07/02 09:17:32;;;;;;;;;31.50;27.00;;;;;22.72;54.42;101398.66;5037085;28;45321;-79
2021/07/02 09:20:16;;;;;;;;;33.25;29.00;;;;;22.72;54.33;101403.06;5037442;28;45502;-79
2021/07/02 09:22:47;;;;;;;;;26.75;26.00;;;;;22.75;54.55;101400.41;5036326;28;45432;-78
2021/07/02 09:25:26;;;;;;;;;24.75;22.25;;;;;22.77;53.97;101392.53;5018355;28;46284;-79
2021/07/02 09:28:04;;;;;;;;;27.00;24.75;;;;;22.76;54.10;101389.00;5035230;28;45364;-77
2021/07/02 09:30:39;;;;;;;;;26.75;26.00;;;;;22.80;53.97;101396.06;5045424;28;45405;-79
2021/07/02 09:33:15;;;;;;;;;25.50;23.75;;;;;22.82;53.59;101389.03;5035056;28;45334;-78
2021/07/02 09:35:54;;;;;;;;;24.25;23.00;;;;;22.81;53.72;101383.72;5056322;28;47728;-81
2021/07/02 09:38:41;;;;;;;;;24.75;21.00;;;;;22.82;54.03;101386.38;5038393;28;45982;-79
2021/07/02 09:41:09;;;;;;;;;29.25;26.50;;;;;22.82;54.01;101383.75;5037987;28;45439;-77
2021/07/02 09:43:38;;;;;;;;;34.00;29.50;;;;;22.85;53.85;101375.81;5037188;28;45395;-77
2021/07/02 09:46:05;;;;;;;;;30.50;26.00;;;;;22.91;53.22;101374.09;5036891;28;46492;-79
2021/07/02 09:48:34;;;;;;;;;27.00;24.00;;;;;22.95;53.28;101366.16;5035225;28;46080;-76
2021/07/02 09:51:02;;;;;;;;;30.75;30.00;;;;;23.03;53.10;101366.19;5036493;28;45510;-76
2021/07/02 09:53:30;;;;;;;;;29.50;27.25;;;;;23.06;53.15;101371.44;5036413;28;45225;-78
2021/07/02 09:56:01;;;;;;;;;27.00;24.00;;;;;23.08;53.29;101369.69;5035666;28;45489;-77
2021/07/02 09:58:34;;;;;;;;;24.00;21.50;;;;;23.13;53.01;101372.34;5033660;28;45307;-77
2021/07/02 10:01:01;;;;;;;;;30.00;24.00;;;;;23.18;52.94;101374.13;5034133;28;45724;-78
2021/07/02 10:03:40;;;;;;;;;43.75;35.00;;;;;23.25;52.20;101368.91;5036164;28;45594;-77
2021/07/02 10:06:22;;;;;;;;;26.25;24.75;;;;;23.31;51.82;101374.19;5035831;28;45579;-80
2021/07/02 10:08:48;;;;;;;;;21.00;19.50;;;;;23.33;52.55;101367.13;5033268;28;46000;-80
2021/07/02 10:11:14;;;;;;;;;24.00;24.00;;;;;23.38;52.37;101373.28;5036423;28;45478;-80
2021/07/02 10:13:42;;;;;;;;;20.50;19.50;;;;;23.46;51.51;101365.38;5038183;28;45346;-80
2021/07/02 10:16:10;;;;;;;;;26.00;24.00;;;;;23.58;51.69;101367.16;5037958;28;46249;-76
2021/07/02 10:18:47;;;;;;;;;25.00;23.50;;;;;23.68;51.70;101352.16;5037932;28;45423;-80
2021/07/02 10:21:14;;;;;;;;;21.50;19.75;;;;;23.80;51.19;101368.00;5019907;28;45536;-80
2021/07/02 10:23:56;;;;;;;;;28.00;24.50;;;;;23.95;50.84;101365.38;5038513;28;45434;-81
2021/07/02 10:26:25;;;;;;;;;26.75;24.75;;;;;24.07;50.76;101359.16;5036206;28;45340;-79
2021/07/02 10:28:52;;;;;;;;;28.50;27.75;;;;;24.16;50.11;101367.94;5035884;28;45440;-80
2021/07/02 10:31:18;;;;;;;;;28.00;26.00;;;;;24.13;50.12;101363.56;5037493;28;45355;-79
2021/07/02 10:33:53;;;;;;;;;26.75;25.00;;;;;24.08;50.09;101358.28;5037694;28;45441;-80
2021/07/02 10:36:21;;;;;;;;;24.50;22.25;;;;;24.05;49.57;101357.41;5037086;28;45470;-79
2021/07/02 10:38:49;;;;;;;;;26.75;25.25;;;;;24.04;49.48;101369.75;5037472;28;45439;-80
2021/07/02 10:41:26;;;;;;;;;25.00;23.00;;;;;24.10;49.89;101376.78;5037108;28;45392;-79
2021/07/02 10:43:58;;;;;;;;;24.00;21.50;;;;;24.16;49.70;101370.59;5037398;28;45482;-80
2021/07/02 10:46:23;;;;;;;;;20.50;17.00;;;;;24.23;49.54;101375.00;5035476;28;45583;-79
2021/07/02 10:48:51;;;;;;;;;21.25;19.00;;;;;24.30;49.03;101367.94;5037152;28;45407;-76
2021/07/02 10:51:35;;;;;;;;;18.75;17.25;;;;;24.42;48.71;101374.06;5036741;28;45388;-78
2021/07/02 10:54:09;;;;;;;;;18.25;16.50;;;;;24.53;48.04;101368.69;5036790;28;45610;-79
2021/07/02 10:56:36;;;;;;;;;16.50;16.25;;;;;24.64;47.78;101367.78;5037152;28;46168;-80
2021/07/02 10:59:04;;;;;;;;;16.25;16.00;;;;;24.76;47.94;101361.59;5036885;28;45823;-77
2021/07/02 11:01:31;;;;;;;;;20.25;17.50;;;;;24.83;47.52;101358.00;5036954;28;45458;-77
2021/07/02 11:04:33;;;;;;;;;18.00;18.00;;;;;24.96;47.34;101357.03;5037197;28;45190;-79
2021/07/02 11:06:59;;;;;;;;;18.25;16.50;;;;;25.04;47.12;101349.91;5023647;28;45621;-78
2021/07/02 11:09:53;;;;;;;;;23.25;21.00;;;;;25.15;46.99;101354.25;5034861;28;45316;-79
2021/07/02 11:12:20;;;;;;;;;19.25;18.25;;;;;25.12;45.72;101348.97;5035411;28;45391;-81